Miami, FL (33157)

3:32 PM EDT on September 01, 2015 (GMT -0400)
JA Richmond West | | Change Station
CLOSE
Current Station
Personal Weather Station
Location: Miami, FL
Elevation: 7 ft
Nearby Weather Stations

Elev 7 ft 25.61 °N, 80.43 °W | Updated 28 seconds ago

Partly Cloudy
Partly Cloudy
96.6 °F
Feels Like 112 °F
N
8.9
Wind Variable Wind from NE
Gusts 9.4 mph

Today
High -- | Low -- °F
--% Chance of Precip.
Yesterday
High -- | Low -- °F
Precip. -- in
7:01 AM 7:40 PM
Waning Gibbous, 87% visible
Pressure 30.05 in
Visibility 10.0 miles
Clouds Scattered Clouds 3600 ft
Heat Index 112 °F
Dew Point 77 °F
Humidity 53%
Rainfall 0.00 in
Snow Depth Not available.
UV 10 out of 12
Pollen 4.40 out of 12
Air Quality Not available.
Flu Activity Not available.
METAR KTMB 011853Z 12008KT 10SM SCT036 32/24 A3005 RMK AO2 LTG DSNT W SLP174 T03220244
Pressure 30.05 in
Visibility 10.0 miles
Clouds Scattered Clouds 3600 ft
Heat Index 112 °F
Dew Point 77 °F
Humidity 53%
Rainfall 0.00 in
Snow Depth Not available.
UV 10 out of 12
Pollen 4.40 out of 12
Air Quality Not available.
Flu Activity Not available.
METAR KTMB 011853Z 12008KT 10SM SCT036 32/24 A3005 RMK AO2 LTG DSNT W SLP174 T03220244
Nowcast | as of 2:26 PM EDT on September 1, 2015

Scattered showers and thunderstorms will continue to develop through this afternoon. Gusty winds to 40 mph, frequent cloud to ground lightning and heavy downpours are possible with the strongest storms. Most activity is expected to move to the north northwest around 10 mph. Potentially, a half inch of rain could fall in a very short period of time.

×

10-Day Weather Forecast

×

Almanac

Astronomy

Sep. 01, 2015 Rise Set
Actual Time
Civil Twilight
Nautical Twilight
Astronomical Twilight
Moon
Length of Visible Light
Length of Day
Tomorrow will be .
, % of the Moon is Illuminated

Today's Extremes

State Highs State Lows

Community

WunderPhotos

Upload Photos

1,851,597 photos uploaded!

WunderBlogs® & News

Nearby

Air Quality

  Air Quality AQ Index Pollutant
Not available.

Snow Depth

Station Depth Elevation

Earthquake Activity

City Distance Mag. Time & Date
Minimum magnitude displayed is 2.5.

Coastal Water Temperatures

Place Temperature

Stations

Nearby Weather Stations

Station Location Temp. Windchill Dew Point Humidity Wind Precip. Elev Updated Type